Norsk, Russia
Current Conditions -  °F | °C
As of 1:30 PM on Monday 20 Oct 2014 (Local Time) from UHBB Reporting Station
Broken Clouds Broken Clouds  
Wind Chill: 21°   Ceiling: 3300
Heat Index: 32°   Visibility: 6mi
Dew Point:   Wind: 16mph
Humidity: 25%   Direction: 310°NW
Pressure: 30.03"   Gusts: NA
Location:  52.34°N, 129.91°E
Report Text: UHBB 200430Z 31007MPS 270V350 9999 BKN033CB M00/M18 Q1017 TEMPO29006G11MPS RMK QFE745/0994 36090060
Loading
Personal Weather Stations






























Interactive Weather Map
Tropical Storm Tracking
New forecast layout! Learn more

10-Day Weather Forecast

Advertisements
Track Severe Weather on mobile